Dixon, MT (59831)

9:22 PM MDT on August 28, 2014 (GMT -0600)
Saint Ignatius | Change Station
CLOSE
Current Station
Personal Weather Station
Location: Saint Ignatius, MT
Elevation: 2818 ft
Nearby Weather Stations

Elev 2818 ft 47.32 °N, 114.14 °W | Updated 29 minutes ago

Mostly Cloudy
Mostly Cloudy
75.7 °F
Feels Like 77 °F
N
0.0
Wind Variable Wind from WSW
Gusts 6.0 mph

Today
High -- | Low -- °F
--% Chance of Precip.
Yesterday
High -- | Low -- °F
Precip. -- in
6:51 AM 8:25 PM
Waxing Crescent, 11% visible
Pressure 29.95 in
Visibility 10.0 miles
Clouds Clear
Heat Index 77 °F
Dew Point 41 °F
Humidity 29%
Rainfall 0.00 in
Snow Depth Not available.
UV 0 out of 12
Pollen 8.00 out of 12
Air Quality Not available.
Flu Activity Not available.
METAR KMSO 290253Z AUTO 35005KT 10SM CLR 23/04 A2999 RMK AO2 SLP141 T02280044 53008 TSNO

More Conditions Fewer Conditions

Pressure 29.95 in
Visibility 10.0 miles
Clouds Clear
Heat Index 77 °F
Dew Point 41 °F
Humidity 29%
Rainfall 0.00 in
Snow Depth Not available.
UV 0 out of 12
Pollen 8.00 out of 12
Air Quality Not available.
Flu Activity Not available.
METAR KMSO 290253Z AUTO 35005KT 10SM CLR 23/04 A2999 RMK AO2 SLP141 T02280044 53008 TSNO

More Conditions Fewer Conditions

10-Day Weather Forecast

Almanac

Astronomy

Aug. 28, 2014 Rise Set
Actual Time 6:51 AM MDT 8:25 PM MDT
Civil Twilight 6:19 AM MDT 8:57 PM MDT
Nautical Twilight 5:40 AM MDT 9:35 PM MDT
Astronomical Twilight 4:57 AM MDT 10:18 PM MDT
Moon 10:02 AM MDT (8/28) 9:34 PM MDT (8/28)
Length of Visible Light 14h 37m
Length of Day
13h 33m
Tomorrow will be 3m 14s shorter.
Waxing Crescent, 11% of the Moon is Illuminated
Today
Waxing Crescent
Sep 2
First Quarter
Sep 8
Full
Sep 15
Last Quarter
Sep 24
New

Today's Extremes

State Highs State Lows

Community

WunderPhotos

Upload Photos

1,748,151 photos uploaded!

Nearby

Snow Depth

Station Depth Elevation
Kraft Creek 0 in 4750 ft
Stuart Mountain 0 in 7400 ft
Wood Creek 0 in 5960 ft
Black Pine 0 in 7210 ft
Twelvemile Creek 0 in 5600 ft

Earthquake Activity

City Distance Mag. Time & Date
No recent earthquake activity has been reported nearby.
Minimum magnitude displayed is 2.5.

Coastal Water Temperatures

Place Temperature
No Stations Reporting

Nearby Weather Stations